sensor_id;sensor_type;location;lat;lon;timestamp;P1;durP1;ratioP1;P2;durP2;ratioP2
13967;SDS011;39536;52.198;9.920;2023-02-01T00:02:24;12.53;;;3.20;;
13967;SDS011;39536;52.198;9.920;2023-02-01T00:04:51;11.47;;;4.77;;
13967;SDS011;39536;52.198;9.920;2023-02-01T00:07:17;17.63;;;4.20;;
13967;SDS011;39536;52.198;9.920;2023-02-01T00:09:45;11.13;;;3.77;;
13967;SDS011;39536;52.198;9.920;2023-02-01T00:12:11;17.27;;;3.37;;
13967;SDS011;39536;52.198;9.920;2023-02-01T00:14:38;8.77;;;3.20;;
13967;SDS011;39536;52.198;9.920;2023-02-01T00:17:05;13.73;;;4.27;;
13967;SDS011;39536;52.198;9.920;2023-02-01T00:19:32;19.03;;;3.73;;
13967;SDS011;39536;52.198;9.920;2023-02-01T00:21:58;15.83;;;4.17;;
13967;SDS011;39536;52.198;9.920;2023-02-01T00:24:25;10.93;;;3.60;;
13967;SDS011;39536;52.198;9.920;2023-02-01T00:26:53;12.93;;;4.17;;
13967;SDS011;39536;52.198;9.920;2023-02-01T00:29:20;14.07;;;3.97;;
13967;SDS011;39536;52.198;9.920;2023-02-01T00:31:49;9.50;;;3.27;;
13967;SDS011;39536;52.198;9.920;2023-02-01T00:34:16;14.90;;;3.80;;
13967;SDS011;39536;52.198;9.920;2023-02-01T00:36:44;17.53;;;4.37;;
13967;SDS011;39536;52.198;9.920;2023-02-01T00:39:11;11.50;;;3.77;;
13967;SDS011;39536;52.198;9.920;2023-02-01T00:41:38;14.87;;;4.23;;
13967;SDS011;39536;52.198;9.920;2023-02-01T00:44:06;14.07;;;2.97;;
13967;SDS011;39536;52.198;9.920;2023-02-01T00:46:33;19.17;;;4.70;;
13967;SDS011;39536;52.198;9.920;2023-02-01T00:48:59;12.87;;;3.70;;
13967;SDS011;39536;52.198;9.920;2023-02-01T00:51:27;20.03;;;4.30;;
13967;SDS011;39536;52.198;9.920;2023-02-01T00:53:54;15.03;;;3.80;;
13967;SDS011;39536;52.198;9.920;2023-02-01T00:56:21;10.93;;;3.37;;
13967;SDS011;39536;52.198;9.920;2023-02-01T00:58:48;18.77;;;3.57;;
13967;SDS011;39536;52.198;9.920;2023-02-01T01:01:17;13.13;;;3.67;;
13967;SDS011;39536;52.198;9.920;2023-02-01T01:03:46;17.00;;;4.33;;
13967;SDS011;39536;52.198;9.920;2023-02-01T01:06:16;9.87;;;3.53;;
13967;SDS011;39536;52.198;9.920;2023-02-01T01:08:44;20.27;;;4.80;;
13967;SDS011;39536;52.198;9.920;2023-02-01T01:11:11;18.67;;;4.10;;
13967;SDS011;39536;52.198;9.920;2023-02-01T01:13:39;14.60;;;3.80;;
13967;SDS011;39536;52.198;9.920;2023-02-01T01:16:06;13.80;;;3.60;;
13967;SDS011;39536;52.198;9.920;2023-02-01T01:18:35;18.60;;;3.77;;
13967;SDS011;39536;52.198;9.920;2023-02-01T01:21:03;13.80;;;4.00;;
13967;SDS011;39536;52.198;9.920;2023-02-01T01:23:31;22.33;;;3.60;;
13967;SDS011;39536;52.198;9.920;2023-02-01T01:25:58;12.00;;;3.20;;
13967;SDS011;39536;52.198;9.920;2023-02-01T01:28:24;22.57;;;4.77;;
13967;SDS011;39536;52.198;9.920;2023-02-01T01:30:51;11.20;;;3.20;;
13967;SDS011;39536;52.198;9.920;2023-02-01T01:33:17;21.67;;;4.70;;
13967;SDS011;39536;52.198;9.920;2023-02-01T01:35:45;15.50;;;3.57;;
13967;SDS011;39536;52.198;9.920;2023-02-01T01:38:11;11.17;;;3.20;;
13967;SDS011;39536;52.198;9.920;2023-02-01T01:40:38;18.07;;;4.27;;
13967;SDS011;39536;52.198;9.920;2023-02-01T01:43:08;16.10;;;4.27;;
13967;SDS011;39536;52.198;9.920;2023-02-01T01:45:38;11.43;;;3.07;;
13967;SDS011;39536;52.198;9.920;2023-02-01T01:48:05;12.67;;;4.07;;
13967;SDS011;39536;52.198;9.920;2023-02-01T01:50:35;22.10;;;3.37;;
13967;SDS011;39536;52.198;9.920;2023-02-01T01:53:07;15.40;;;3.80;;
13967;SDS011;39536;52.198;9.920;2023-02-01T01:55:38;21.67;;;4.53;;
13967;SDS011;39536;52.198;9.920;2023-02-01T01:58:09;14.00;;;3.00;;
13967;SDS011;39536;52.198;9.920;2023-02-01T02:00:40;12.13;;;3.17;;
13967;SDS011;39536;52.198;9.920;2023-02-01T02:03:08;11.17;;;3.83;;
13967;SDS011;39536;52.198;9.920;2023-02-01T02:05:40;9.20;;;2.77;;
13967;SDS011;39536;52.198;9.920;2023-02-01T02:08:08;20.17;;;4.00;;
13967;SDS011;39536;52.198;9.920;2023-02-01T02:10:35;20.63;;;3.97;;
13967;SDS011;39536;52.198;9.920;2023-02-01T02:13:20;13.77;;;3.70;;
13967;SDS011;39536;52.198;9.920;2023-02-01T02:15:49;11.33;;;3.00;;
13967;SDS011;39536;52.198;9.920;2023-02-01T02:18:26;21.13;;;4.73;;
13967;SDS011;39536;52.198;9.920;2023-02-01T02:21:02;17.60;;;3.80;;
13967;SDS011;39536;52.198;9.920;2023-02-01T02:23:44;17.47;;;3.97;;
13967;SDS011;39536;52.198;9.920;2023-02-01T02:26:39;15.80;;;3.73;;
13967;SDS011;39536;52.198;9.920;2023-02-01T02:29:33;15.50;;;4.07;;
13967;SDS011;39536;52.198;9.920;2023-02-01T02:32:44;13.20;;;3.90;;
13967;SDS011;39536;52.198;9.920;2023-02-01T02:35:43;19.30;;;5.03;;
13967;SDS011;39536;52.198;9.920;2023-02-01T02:38:14;15.80;;;4.10;;
13967;SDS011;39536;52.198;9.920;2023-02-01T02:40:46;11.57;;;4.67;;
13967;SDS011;39536;52.198;9.920;2023-02-01T02:43:20;10.67;;;3.60;;
13967;SDS011;39536;52.198;9.920;2023-02-01T02:46:06;13.73;;;4.17;;
13967;SDS011;39536;52.198;9.920;2023-02-01T02:48:55;12.37;;;4.17;;
13967;SDS011;39536;52.198;9.920;2023-02-01T02:51:30;17.40;;;4.17;;
13967;SDS011;39536;52.198;9.920;2023-02-01T02:54:20;12.67;;;4.27;;
13967;SDS011;39536;52.198;9.920;2023-02-01T02:57:08;11.30;;;3.63;;
13967;SDS011;39536;52.198;9.920;2023-02-01T02:59:56;15.77;;;4.33;;
13967;SDS011;39536;52.198;9.920;2023-02-01T03:02:42;21.27;;;5.07;;
13967;SDS011;39536;52.198;9.920;2023-02-01T03:05:31;11.80;;;4.93;;
13967;SDS011;39536;52.198;9.920;2023-02-01T03:08:04;17.03;;;3.73;;
13967;SDS011;39536;52.198;9.920;2023-02-01T03:10:38;10.83;;;3.23;;
13967;SDS011;39536;52.198;9.920;2023-02-01T03:13:17;10.27;;;3.30;;
13967;SDS011;39536;52.198;9.920;2023-02-01T03:15:51;11.17;;;4.50;;
13967;SDS011;39536;52.198;9.920;2023-02-01T03:18:25;11.77;;;3.73;;
13967;SDS011;39536;52.198;9.920;2023-02-01T03:20:55;22.57;;;4.70;;
13967;SDS011;39536;52.198;9.920;2023-02-01T03:23:27;16.03;;;4.43;;
13967;SDS011;39536;52.198;9.920;2023-02-01T03:25:58;15.67;;;4.37;;
13967;SDS011;39536;52.198;9.920;2023-02-01T03:28:28;13.67;;;3.63;;
13967;SDS011;39536;52.198;9.920;2023-02-01T03:30:59;12.10;;;4.07;;
13967;SDS011;39536;52.198;9.920;2023-02-01T03:33:26;21.33;;;4.90;;
13967;SDS011;39536;52.198;9.920;2023-02-01T03:35:57;13.37;;;4.70;;
13967;SDS011;39536;52.198;9.920;2023-02-01T03:38:31;12.93;;;3.33;;
13967;SDS011;39536;52.198;9.920;2023-02-01T03:41:02;21.57;;;4.60;;
13967;SDS011;39536;52.198;9.920;2023-02-01T03:43:36;18.63;;;5.10;;
13967;SDS011;39536;52.198;9.920;2023-02-01T03:46:11;14.27;;;4.63;;
13967;SDS011;39536;52.198;9.920;2023-02-01T03:48:43;14.57;;;4.80;;
13967;SDS011;39536;52.198;9.920;2023-02-01T03:51:10;23.70;;;6.07;;
13967;SDS011;39536;52.198;9.920;2023-02-01T03:53:39;12.33;;;4.57;;
13967;SDS011;39536;52.198;9.920;2023-02-01T03:56:10;27.33;;;5.60;;
13967;SDS011;39536;52.198;9.920;2023-02-01T03:58:37;15.03;;;4.00;;
13967;SDS011;39536;52.198;9.920;2023-02-01T04:01:05;15.80;;;4.40;;
13967;SDS011;39536;52.198;9.920;2023-02-01T04:03:31;17.73;;;5.53;;
13967;SDS011;39536;52.198;9.920;2023-02-01T04:05:58;14.73;;;4.93;;
13967;SDS011;39536;52.198;9.920;2023-02-01T04:08:24;13.37;;;3.40;;
13967;SDS011;39536;52.198;9.920;2023-02-01T04:10:52;13.43;;;5.80;;
13967;SDS011;39536;52.198;9.920;2023-02-01T04:13:18;12.10;;;4.50;;
13967;SDS011;39536;52.198;9.920;2023-02-01T04:15:46;24.70;;;5.50;;
13967;SDS011;39536;52.198;9.920;2023-02-01T04:18:14;14.57;;;5.03;;
13967;SDS011;39536;52.198;9.920;2023-02-01T04:20:41;10.17;;;4.23;;
13967;SDS011;39536;52.198;9.920;2023-02-01T04:23:08;19.40;;;4.83;;
13967;SDS011;39536;52.198;9.920;2023-02-01T04:25:35;12.63;;;4.83;;
13967;SDS011;39536;52.198;9.920;2023-02-01T04:28:03;24.17;;;5.37;;
13967;SDS011;39536;52.198;9.920;2023-02-01T04:30:29;12.37;;;4.47;;
13967;SDS011;39536;52.198;9.920;2023-02-01T04:32:56;20.03;;;6.27;;
13967;SDS011;39536;52.198;9.920;2023-02-01T04:35:22;10.67;;;4.70;;
13967;SDS011;39536;52.198;9.920;2023-02-01T04:37:48;18.23;;;4.97;;
13967;SDS011;39536;52.198;9.920;2023-02-01T04:40:15;11.40;;;3.77;;
13967;SDS011;39536;52.198;9.920;2023-02-01T04:42:41;15.73;;;4.97;;
13967;SDS011;39536;52.198;9.920;2023-02-01T04:45:10;13.23;;;5.90;;
13967;SDS011;39536;52.198;9.920;2023-02-01T04:47:36;15.40;;;5.77;;
13967;SDS011;39536;52.198;9.920;2023-02-01T04:50:03;17.80;;;5.30;;
13967;SDS011;39536;52.198;9.920;2023-02-01T04:52:30;15.00;;;5.57;;
13967;SDS011;39536;52.198;9.920;2023-02-01T04:54:57;14.30;;;5.30;;
13967;SDS011;39536;52.198;9.920;2023-02-01T04:57:25;12.47;;;5.07;;
13967;SDS011;39536;52.198;9.920;2023-02-01T04:59:51;18.17;;;4.30;;
13967;SDS011;39536;52.198;9.920;2023-02-01T05:02:19;10.37;;;4.40;;
13967;SDS011;39536;52.198;9.920;2023-02-01T05:04:45;17.77;;;5.50;;
13967;SDS011;39536;52.198;9.920;2023-02-01T05:07:11;12.47;;;4.80;;
13967;SDS011;39536;52.198;9.920;2023-02-01T05:09:38;18.23;;;5.50;;
13967;SDS011;39536;52.198;9.920;2023-02-01T05:12:04;12.80;;;4.93;;
13967;SDS011;39536;52.198;9.920;2023-02-01T05:14:49;9.63;;;3.87;;
13967;SDS011;39536;52.198;9.920;2023-02-01T05:17:15;14.93;;;5.23;;
13967;SDS011;39536;52.198;9.920;2023-02-01T05:19:43;10.30;;;3.50;;
13967;SDS011;39536;52.198;9.920;2023-02-01T05:22:09;8.97;;;4.37;;
13967;SDS011;39536;52.198;9.920;2023-02-01T05:24:36;14.73;;;4.87;;
13967;SDS011;39536;52.198;9.920;2023-02-01T05:27:02;10.63;;;4.57;;
13967;SDS011;39536;52.198;9.920;2023-02-01T05:29:29;11.03;;;4.77;;
13967;SDS011;39536;52.198;9.920;2023-02-01T05:31:55;9.10;;;3.50;;
13967;SDS011;39536;52.198;9.920;2023-02-01T05:34:22;12.90;;;4.97;;
13967;SDS011;39536;52.198;9.920;2023-02-01T05:36:49;12.60;;;4.07;;
13967;SDS011;39536;52.198;9.920;2023-02-01T05:39:16;12.37;;;4.27;;
13967;SDS011;39536;52.198;9.920;2023-02-01T05:41:42;9.13;;;3.60;;
13967;SDS011;39536;52.198;9.920;2023-02-01T05:44:09;6.23;;;3.90;;
13967;SDS011;39536;52.198;9.920;2023-02-01T05:46:36;9.83;;;3.83;;
13967;SDS011;39536;52.198;9.920;2023-02-01T05:49:03;7.43;;;3.00;;
13967;SDS011;39536;52.198;9.920;2023-02-01T05:51:29;11.23;;;4.40;;
13967;SDS011;39536;52.198;9.920;2023-02-01T05:53:57;12.73;;;4.77;;
13967;SDS011;39536;52.198;9.920;2023-02-01T05:56:23;14.97;;;4.20;;
13967;SDS011;39536;52.198;9.920;2023-02-01T05:58:50;10.53;;;3.67;;
13967;SDS011;39536;52.198;9.920;2023-02-01T06:01:16;9.77;;;3.97;;
13967;SDS011;39536;52.198;9.920;2023-02-01T06:03:43;8.50;;;3.67;;
13967;SDS011;39536;52.198;9.920;2023-02-01T06:06:09;8.47;;;2.63;;
13967;SDS011;39536;52.198;9.920;2023-02-01T06:08:36;8.13;;;3.23;;
13967;SDS011;39536;52.198;9.920;2023-02-01T06:11:06;9.57;;;4.07;;
13967;SDS011;39536;52.198;9.920;2023-02-01T06:13:33;10.20;;;3.60;;
13967;SDS011;39536;52.198;9.920;2023-02-01T06:16:00;7.53;;;3.77;;
13967;SDS011;39536;52.198;9.920;2023-02-01T06:18:27;7.10;;;3.70;;
13967;SDS011;39536;52.198;9.920;2023-02-01T06:20:55;9.80;;;3.57;;
13967;SDS011;39536;52.198;9.920;2023-02-01T06:23:22;15.70;;;3.90;;
13967;SDS011;39536;52.198;9.920;2023-02-01T06:25:49;12.80;;;3.57;;
13967;SDS011;39536;52.198;9.920;2023-02-01T06:28:18;14.20;;;4.07;;
13967;SDS011;39536;52.198;9.920;2023-02-01T06:30:44;13.10;;;3.70;;
13967;SDS011;39536;52.198;9.920;2023-02-01T06:33:11;8.17;;;3.27;;
13967;SDS011;39536;52.198;9.920;2023-02-01T06:35:40;6.70;;;3.33;;
13967;SDS011;39536;52.198;9.920;2023-02-01T06:38:09;11.50;;;4.63;;
13967;SDS011;39536;52.198;9.920;2023-02-01T06:40:36;9.50;;;3.33;;
13967;SDS011;39536;52.198;9.920;2023-02-01T06:43:02;15.50;;;3.30;;
13967;SDS011;39536;52.198;9.920;2023-02-01T06:45:30;11.67;;;3.80;;
13967;SDS011;39536;52.198;9.920;2023-02-01T06:47:57;4.53;;;3.10;;
13967;SDS011;39536;52.198;9.920;2023-02-01T06:50:24;8.93;;;3.50;;
13967;SDS011;39536;52.198;9.920;2023-02-01T06:52:51;7.70;;;3.17;;
13967;SDS011;39536;52.198;9.920;2023-02-01T06:55:18;7.33;;;3.17;;
13967;SDS011;39536;52.198;9.920;2023-02-01T06:57:44;9.63;;;4.87;;
13967;SDS011;39536;52.198;9.920;2023-02-01T07:00:11;11.67;;;4.50;;
13967;SDS011;39536;52.198;9.920;2023-02-01T07:02:39;7.03;;;2.93;;
13967;SDS011;39536;52.198;9.920;2023-02-01T07:05:06;8.30;;;3.50;;
13967;SDS011;39536;52.198;9.920;2023-02-01T07:07:32;9.10;;;3.17;;
13967;SDS011;39536;52.198;9.920;2023-02-01T07:09:59;8.67;;;2.90;;
13967;SDS011;39536;52.198;9.920;2023-02-01T07:12:25;8.97;;;4.23;;
13967;SDS011;39536;52.198;9.920;2023-02-01T07:14:52;11.23;;;4.47;;
13967;SDS011;39536;52.198;9.920;2023-02-01T07:17:18;12.83;;;4.37;;
13967;SDS011;39536;52.198;9.920;2023-02-01T07:19:46;8.10;;;3.33;;
13967;SDS011;39536;52.198;9.920;2023-02-01T07:22:12;7.47;;;4.00;;
13967;SDS011;39536;52.198;9.920;2023-02-01T07:24:41;7.63;;;3.43;;
13967;SDS011;39536;52.198;9.920;2023-02-01T07:27:08;7.87;;;3.27;;
13967;SDS011;39536;52.198;9.920;2023-02-01T07:29:34;14.73;;;4.60;;
13967;SDS011;39536;52.198;9.920;2023-02-01T07:32:01;11.57;;;3.50;;
13967;SDS011;39536;52.198;9.920;2023-02-01T07:34:27;12.07;;;4.40;;
13967;SDS011;39536;52.198;9.920;2023-02-01T07:36:56;11.70;;;3.70;;
13967;SDS011;39536;52.198;9.920;2023-02-01T07:39:23;8.97;;;3.37;;
13967;SDS011;39536;52.198;9.920;2023-02-01T07:41:49;9.77;;;2.13;;
13967;SDS011;39536;52.198;9.920;2023-02-01T07:44:16;8.03;;;3.03;;
13967;SDS011;39536;52.198;9.920;2023-02-01T07:46:47;10.43;;;3.30;;
13967;SDS011;39536;52.198;9.920;2023-02-01T07:49:14;8.90;;;3.97;;
13967;SDS011;39536;52.198;9.920;2023-02-01T07:51:42;7.53;;;3.40;;
13967;SDS011;39536;52.198;9.920;2023-02-01T07:54:10;15.30;;;5.07;;
13967;SDS011;39536;52.198;9.920;2023-02-01T07:56:36;15.07;;;4.20;;
13967;SDS011;39536;52.198;9.920;2023-02-01T07:59:03;11.17;;;4.63;;
13967;SDS011;39536;52.198;9.920;2023-02-01T08:01:29;9.03;;;3.70;;
13967;SDS011;39536;52.198;9.920;2023-02-01T08:03:57;8.83;;;4.27;;
13967;SDS011;39536;52.198;9.920;2023-02-01T08:06:25;11.77;;;3.97;;
13967;SDS011;39536;52.198;9.920;2023-02-01T08:08:53;11.53;;;3.80;;
13967;SDS011;39536;52.198;9.920;2023-02-01T08:11:21;8.87;;;3.67;;
13967;SDS011;39536;52.198;9.920;2023-02-01T08:13:49;10.73;;;4.20;;
13967;SDS011;39536;52.198;9.920;2023-02-01T08:16:16;11.97;;;3.57;;
13967;SDS011;39536;52.198;9.920;2023-02-01T08:18:44;9.93;;;3.83;;
13967;SDS011;39536;52.198;9.920;2023-02-01T08:21:12;11.13;;;3.67;;
13967;SDS011;39536;52.198;9.920;2023-02-01T08:23:40;11.23;;;4.47;;
13967;SDS011;39536;52.198;9.920;2023-02-01T08:26:08;12.57;;;4.30;;
13967;SDS011;39536;52.198;9.920;2023-02-01T08:28:38;14.90;;;3.70;;
13967;SDS011;39536;52.198;9.920;2023-02-01T08:31:06;18.07;;;3.47;;
13967;SDS011;39536;52.198;9.920;2023-02-01T08:33:33;9.97;;;3.97;;
13967;SDS011;39536;52.198;9.920;2023-02-01T08:36:01;10.80;;;4.27;;
13967;SDS011;39536;52.198;9.920;2023-02-01T08:38:28;7.03;;;2.70;;
13967;SDS011;39536;52.198;9.920;2023-02-01T08:40:55;12.33;;;4.30;;
13967;SDS011;39536;52.198;9.920;2023-02-01T08:43:23;9.03;;;3.17;;
13967;SDS011;39536;52.198;9.920;2023-02-01T08:45:51;14.67;;;4.23;;
13967;SDS011;39536;52.198;9.920;2023-02-01T08:48:20;15.67;;;4.30;;
13967;SDS011;39536;52.198;9.920;2023-02-01T08:50:46;11.47;;;3.20;;
13967;SDS011;39536;52.198;9.920;2023-02-01T08:53:12;13.27;;;3.73;;
13967;SDS011;39536;52.198;9.920;2023-02-01T08:55:39;26.33;;;4.80;;
13967;SDS011;39536;52.198;9.920;2023-02-01T08:58:06;9.63;;;3.53;;
13967;SDS011;39536;52.198;9.920;2023-02-01T09:00:32;11.23;;;2.90;;
13967;SDS011;39536;52.198;9.920;2023-02-01T09:03:00;9.77;;;2.93;;
13967;SDS011;39536;52.198;9.920;2023-02-01T09:05:27;18.40;;;4.90;;
13967;SDS011;39536;52.198;9.920;2023-02-01T09:07:53;10.03;;;3.07;;
13967;SDS011;39536;52.198;9.920;2023-02-01T09:10:20;11.03;;;3.90;;
13967;SDS011;39536;52.198;9.920;2023-02-01T09:12:46;13.97;;;3.60;;
13967;SDS011;39536;52.198;9.920;2023-02-01T09:15:13;5.50;;;2.20;;
13967;SDS011;39536;52.198;9.920;2023-02-01T09:17:39;11.60;;;3.30;;
13967;SDS011;39536;52.198;9.920;2023-02-01T09:20:10;10.43;;;3.60;;
13967;SDS011;39536;52.198;9.920;2023-02-01T09:22:37;8.60;;;2.80;;
13967;SDS011;39536;52.198;9.920;2023-02-01T09:25:04;10.20;;;3.10;;
13967;SDS011;39536;52.198;9.920;2023-02-01T09:27:31;8.43;;;2.40;;
13967;SDS011;39536;52.198;9.920;2023-02-01T09:29:57;10.20;;;3.47;;
13967;SDS011;39536;52.198;9.920;2023-02-01T09:32:24;12.10;;;2.87;;
13967;SDS011;39536;52.198;9.920;2023-02-01T09:34:51;8.90;;;2.83;;
13967;SDS011;39536;52.198;9.920;2023-02-01T09:37:20;8.57;;;2.40;;
13967;SDS011;39536;52.198;9.920;2023-02-01T09:39:46;7.40;;;3.30;;
13967;SDS011;39536;52.198;9.920;2023-02-01T09:42:27;5.50;;;2.70;;
13967;SDS011;39536;52.198;9.920;2023-02-01T09:45:12;9.63;;;3.40;;
13967;SDS011;39536;52.198;9.920;2023-02-01T09:47:46;10.90;;;3.77;;
13967;SDS011;39536;52.198;9.920;2023-02-01T09:50:17;18.70;;;4.13;;
13967;SDS011;39536;52.198;9.920;2023-02-01T09:52:50;9.10;;;3.50;;
13967;SDS011;39536;52.198;9.920;2023-02-01T09:55:20;9.33;;;2.80;;
13967;SDS011;39536;52.198;9.920;2023-02-01T09:57:53;11.73;;;3.23;;
13967;SDS011;39536;52.198;9.920;2023-02-01T10:00:24;7.43;;;3.50;;
13967;SDS011;39536;52.198;9.920;2023-02-01T10:02:54;11.67;;;3.70;;
13967;SDS011;39536;52.198;9.920;2023-02-01T10:05:24;10.03;;;4.03;;
13967;SDS011;39536;52.198;9.920;2023-02-01T10:08:15;8.57;;;2.97;;
13967;SDS011;39536;52.198;9.920;2023-02-01T10:10:49;4.77;;;2.73;;
13967;SDS011;39536;52.198;9.920;2023-02-01T10:13:23;10.90;;;3.20;;
13967;SDS011;39536;52.198;9.920;2023-02-01T10:18:55;11.00;;;4.10;;
13967;SDS011;39536;52.198;9.920;2023-02-01T10:21:34;5.53;;;2.70;;
13967;SDS011;39536;52.198;9.920;2023-02-01T10:24:14;8.53;;;2.60;;
13967;SDS011;39536;52.198;9.920;2023-02-01T10:26:50;10.80;;;3.03;;
13967;SDS011;39536;52.198;9.920;2023-02-01T10:29:22;9.20;;;3.53;;
13967;SDS011;39536;52.198;9.920;2023-02-01T10:31:52;11.03;;;3.50;;
13967;SDS011;39536;52.198;9.920;2023-02-01T10:34:20;10.70;;;3.73;;
13967;SDS011;39536;52.198;9.920;2023-02-01T10:36:52;6.13;;;3.00;;
13967;SDS011;39536;52.198;9.920;2023-02-01T10:39:22;9.40;;;3.43;;
13967;SDS011;39536;52.198;9.920;2023-02-01T10:41:49;10.27;;;2.37;;
13967;SDS011;39536;52.198;9.920;2023-02-01T10:44:16;6.57;;;2.67;;
13967;SDS011;39536;52.198;9.920;2023-02-01T10:46:47;14.00;;;3.20;;
13967;SDS011;39536;52.198;9.920;2023-02-01T10:49:16;13.13;;;3.57;;
13967;SDS011;39536;52.198;9.920;2023-02-01T10:51:46;10.13;;;4.10;;
13967;SDS011;39536;52.198;9.920;2023-02-01T10:54:18;9.20;;;3.10;;
13967;SDS011;39536;52.198;9.920;2023-02-01T10:56:48;9.83;;;2.57;;
13967;SDS011;39536;52.198;9.920;2023-02-01T10:59:18;7.07;;;2.97;;
13967;SDS011;39536;52.198;9.920;2023-02-01T11:01:47;9.07;;;3.20;;
13967;SDS011;39536;52.198;9.920;2023-02-01T11:04:15;11.43;;;3.13;;
13967;SDS011;39536;52.198;9.920;2023-02-01T11:06:43;11.50;;;3.23;;
13967;SDS011;39536;52.198;9.920;2023-02-01T11:09:15;11.70;;;3.60;;
13967;SDS011;39536;52.198;9.920;2023-02-01T11:11:57;14.27;;;3.23;;
13967;SDS011;39536;52.198;9.920;2023-02-01T11:14:33;7.77;;;2.87;;
13967;SDS011;39536;52.198;9.920;2023-02-01T11:17:12;10.30;;;2.57;;
13967;SDS011;39536;52.198;9.920;2023-02-01T11:19:52;9.30;;;2.90;;
13967;SDS011;39536;52.198;9.920;2023-02-01T11:22:23;10.47;;;2.63;;
13967;SDS011;39536;52.198;9.920;2023-02-01T11:24:51;6.53;;;2.63;;
13967;SDS011;39536;52.198;9.920;2023-02-01T11:27:20;6.83;;;3.30;;
13967;SDS011;39536;52.198;9.920;2023-02-01T11:29:50;6.57;;;2.70;;
13967;SDS011;39536;52.198;9.920;2023-02-01T11:32:20;9.30;;;2.80;;
13967;SDS011;39536;52.198;9.920;2023-02-01T11:34:51;9.27;;;3.10;;
13967;SDS011;39536;52.198;9.920;2023-02-01T11:37:21;12.03;;;3.47;;
13967;SDS011;39536;52.198;9.920;2023-02-01T11:39:54;8.77;;;3.50;;
13967;SDS011;39536;52.198;9.920;2023-02-01T11:42:23;7.57;;;3.20;;
13967;SDS011;39536;52.198;9.920;2023-02-01T11:44:50;6.23;;;3.13;;
13967;SDS011;39536;52.198;9.920;2023-02-01T11:47:21;9.87;;;3.10;;
13967;SDS011;39536;52.198;9.920;2023-02-01T11:49:50;10.97;;;3.27;;
13967;SDS011;39536;52.198;9.920;2023-02-01T11:52:18;4.10;;;2.13;;
13967;SDS011;39536;52.198;9.920;2023-02-01T11:55:00;7.63;;;3.30;;
13967;SDS011;39536;52.198;9.920;2023-02-01T11:57:46;9.07;;;3.20;;
13967;SDS011;39536;52.198;9.920;2023-02-01T12:00:32;14.23;;;3.87;;
13967;SDS011;39536;52.198;9.920;2023-02-01T12:06:08;8.60;;;3.17;;
13967;SDS011;39536;52.198;9.920;2023-02-01T12:08:50;12.77;;;3.90;;
13967;SDS011;39536;52.198;9.920;2023-02-01T12:11:30;7.93;;;2.80;;
13967;SDS011;39536;52.198;9.920;2023-02-01T12:14:17;13.77;;;4.33;;
13967;SDS011;39536;52.198;9.920;2023-02-01T12:16:56;13.50;;;3.27;;
13967;SDS011;39536;52.198;9.920;2023-02-01T12:19:49;9.70;;;3.07;;
13967;SDS011;39536;52.198;9.920;2023-02-01T12:22:30;13.57;;;3.60;;
13967;SDS011;39536;52.198;9.920;2023-02-01T12:25:13;12.63;;;3.90;;
13967;SDS011;39536;52.198;9.920;2023-02-01T12:28:01;10.07;;;3.23;;
13967;SDS011;39536;52.198;9.920;2023-02-01T12:33:37;8.83;;;3.67;;
13967;SDS011;39536;52.198;9.920;2023-02-01T12:36:18;15.50;;;3.13;;
13967;SDS011;39536;52.198;9.920;2023-02-01T12:38:53;8.70;;;3.30;;
13967;SDS011;39536;52.198;9.920;2023-02-01T12:44:24;8.50;;;2.93;;
13967;SDS011;39536;52.198;9.920;2023-02-01T12:46:58;12.20;;;3.40;;
13967;SDS011;39536;52.198;9.920;2023-02-01T12:49:31;7.43;;;3.17;;
13967;SDS011;39536;52.198;9.920;2023-02-01T12:52:10;10.03;;;2.63;;
13967;SDS011;39536;52.198;9.920;2023-02-01T12:54:41;10.23;;;2.80;;
13967;SDS011;39536;52.198;9.920;2023-02-01T12:57:12;13.40;;;3.17;;
13967;SDS011;39536;52.198;9.920;2023-02-01T12:59:42;4.90;;;2.40;;
13967;SDS011;39536;52.198;9.920;2023-02-01T13:02:18;6.73;;;3.07;;
13967;SDS011;39536;52.198;9.920;2023-02-01T13:04:52;5.30;;;2.10;;
13967;SDS011;39536;52.198;9.920;2023-02-01T13:07:27;7.50;;;3.17;;
13967;SDS011;39536;52.198;9.920;2023-02-01T13:10:01;8.80;;;3.50;;
13967;SDS011;39536;52.198;9.920;2023-02-01T13:12:33;3.83;;;2.37;;
13967;SDS011;39536;52.198;9.920;2023-02-01T13:15:04;7.40;;;2.73;;
13967;SDS011;39536;52.198;9.920;2023-02-01T13:17:38;11.80;;;3.57;;
13967;SDS011;39536;52.198;9.920;2023-02-01T13:20:14;6.40;;;3.23;;
13967;SDS011;39536;52.198;9.920;2023-02-01T13:22:47;8.37;;;3.20;;
13967;SDS011;39536;52.198;9.920;2023-02-01T13:25:19;5.57;;;2.53;;
13967;SDS011;39536;52.198;9.920;2023-02-01T13:27:53;5.40;;;2.93;;
13967;SDS011;39536;52.198;9.920;2023-02-01T13:30:22;2.33;;;1.70;;
13967;SDS011;39536;52.198;9.920;2023-02-01T13:33:02;3.67;;;2.33;;
13967;SDS011;39536;52.198;9.920;2023-02-01T13:35:50;4.50;;;2.50;;
13967;SDS011;39536;52.198;9.920;2023-02-01T13:38:35;7.30;;;2.67;;
13967;SDS011;39536;52.198;9.920;2023-02-01T13:41:23;5.83;;;2.57;;
13967;SDS011;39536;52.198;9.920;2023-02-01T13:43:54;6.70;;;3.43;;
13967;SDS011;39536;52.198;9.920;2023-02-01T13:46:22;4.60;;;2.90;;
13967;SDS011;39536;52.198;9.920;2023-02-01T13:48:51;5.57;;;2.77;;
13967;SDS011;39536;52.198;9.920;2023-02-01T13:51:28;6.57;;;3.27;;
13967;SDS011;39536;52.198;9.920;2023-02-01T13:54:00;6.90;;;3.37;;
13967;SDS011;39536;52.198;9.920;2023-02-01T13:56:27;3.83;;;2.50;;
13967;SDS011;39536;52.198;9.920;2023-02-01T13:58:53;3.50;;;2.40;;
13967;SDS011;39536;52.198;9.920;2023-02-01T14:07:17;2.60;;;0.40;;
13967;SDS011;39536;52.198;9.920;2023-02-01T14:09:45;2.63;;;0.80;;
13967;SDS011;39536;52.198;9.920;2023-02-01T14:15:18;0.33;;;0.20;;
13967;SDS011;39536;52.198;9.920;2023-02-01T14:17:48;1.83;;;0.73;;
13967;SDS011;39536;52.198;9.920;2023-02-01T14:23:27;1.27;;;0.33;;
13967;SDS011;39536;52.198;9.920;2023-02-01T14:26:01;1.83;;;0.30;;
13967;SDS011;39536;52.198;9.920;2023-02-01T14:28:41;0.50;;;0.30;;
13967;SDS011;39536;52.198;9.920;2023-02-01T14:34:11;1.40;;;0.63;;
13967;SDS011;39536;52.198;9.920;2023-02-01T14:36:44;0.60;;;0.50;;
13967;SDS011;39536;52.198;9.920;2023-02-01T14:39:18;0.67;;;0.60;;
13967;SDS011;39536;52.198;9.920;2023-02-01T14:41:48;0.37;;;0.27;;
13967;SDS011;39536;52.198;9.920;2023-02-01T14:44:24;0.20;;;0.20;;
13967;SDS011;39536;52.198;9.920;2023-02-01T14:47:10;2.13;;;0.70;;
13967;SDS011;39536;52.198;9.920;2023-02-01T14:49:55;1.03;;;0.33;;
13967;SDS011;39536;52.198;9.920;2023-02-01T14:52:30;0.70;;;0.40;;
13967;SDS011;39536;52.198;9.920;2023-02-01T14:55:02;1.17;;;0.77;;
13967;SDS011;39536;52.198;9.920;2023-02-01T14:57:32;2.63;;;0.60;;
13967;SDS011;39536;52.198;9.920;2023-02-01T15:00:05;1.70;;;0.70;;
13967;SDS011;39536;52.198;9.920;2023-02-01T15:02:34;1.50;;;0.30;;
13967;SDS011;39536;52.198;9.920;2023-02-01T15:05:12;4.90;;;0.73;;
13967;SDS011;39536;52.198;9.920;2023-02-01T15:07:50;0.50;;;0.33;;
13967;SDS011;39536;52.198;9.920;2023-02-01T15:10:18;3.03;;;0.77;;
13967;SDS011;39536;52.198;9.920;2023-02-01T15:12:47;2.90;;;0.50;;
13967;SDS011;39536;52.198;9.920;2023-02-01T15:15:15;1.87;;;0.53;;
13967;SDS011;39536;52.198;9.920;2023-02-01T15:17:49;0.37;;;0.20;;
13967;SDS011;39536;52.198;9.920;2023-02-01T15:20:18;3.17;;;1.00;;
13967;SDS011;39536;52.198;9.920;2023-02-01T15:22:53;1.97;;;1.10;;
13967;SDS011;39536;52.198;9.920;2023-02-01T15:25:21;0.73;;;0.40;;
13967;SDS011;39536;52.198;9.920;2023-02-01T15:27:49;1.47;;;0.80;;
13967;SDS011;39536;52.198;9.920;2023-02-01T15:30:17;1.73;;;0.87;;